Weather History for Liberal, KS

Change the Weather History Date:

Wednesday, December 12, 2012

  Actual Average Record
Temperature  
Mean Temperature 37 °F -  
Max Temperature 55 °F 50 °F 76 °F (1977)
Min Temperature 19 °F 24 °F -6 °F (1961)
Degree Days  
Heating Degree Days 28    
Moisture  
Dew Point 12 °F    
Average Humidity 40    
Maximum Humidity 58    
Minimum Humidity 22    
Precipitation  
Precipitation 0.00 in - - ()
Sea Level Pressure  
Sea Level Pressure 29.96 in    
Wind  
Wind Speed 13 mph (South)    
Max Wind Speed 18 mph    
Max Gust Speed 24 mph    
Visibility 10 miles    
Events      
Averages and records for this station are not official NWS values.
T = Trace of Precipitation, MM = Missing Value Source: NWS Daily Summary

Daily Weather History Graph

Daily Weather History Graph

Search for Another Location

Airport:

Trip Planner

Search our weather history database for the weather conditions in past years. The results will help you decide how hot, cold, wet, or windy it might be!

Date:

Astronomy

Dec. 12, 2012 Rise Set
Actual Time 7:48 AM CST 5:27 PM CST
Civil Twilight 7:19 AM CST 5:56 PM CST
Nautical Twilight 6:46 AM CST 6:28 PM CST
Astronomical Twilight 6:15 AM CST 7:00 PM CST
Moon 6:55 AM CST (12/12) 5:06 PM CST (12/12)
Length of Visible Light 10h 37m
Length of Day
9h 39m
Waning Crescent, 1% of the Moon is Illuminated
Dec 12
Waning Crescent
Dec 13
New
Dec 19
First Quarter
Dec 28
Full
Jan 4
Last Quarter

Hourly Weather History & Observations

Time (CST) Temp. Windchill Dew Point Humidity Pressure Visibility Wind Dir Wind Speed Gust Speed Precip Events Conditions
12:15 AM 24.8 °F 14.0 °F 6.8 °F 46% 30.02 in 10.0 mi South 11.5 mph - N/A   Clear
12:35 AM 23.0 °F 11.7 °F 5.0 °F 46% 30.01 in 10.0 mi SSE 11.5 mph - N/A   Clear
12:55 AM 23.0 °F 11.1 °F 5.0 °F 46% 30.01 in 10.0 mi South 12.7 mph - N/A   Clear
1:15 AM 24.8 °F 13.4 °F 6.8 °F 46% 30.00 in 10.0 mi SSW 12.7 mph - N/A   Clear
1:35 AM 24.8 °F 14.0 °F 6.8 °F 46% 30.00 in 10.0 mi SSW 11.5 mph - N/A   Clear
1:55 AM 23.0 °F 12.4 °F 5.0 °F 46% 29.99 in 10.0 mi SSW 10.4 mph - N/A   Clear
2:15 AM 21.2 °F 10.1 °F 6.8 °F 54% 30.00 in 10.0 mi SSW 10.4 mph - N/A   Clear
2:35 AM 19.4 °F 7.9 °F 3.2 °F 49% 30.00 in 10.0 mi South 10.4 mph - N/A   Clear
2:55 AM 19.4 °F 7.9 °F 6.8 °F 58% 29.99 in 10.0 mi SSW 10.4 mph - N/A   Clear
3:15 AM 21.2 °F 8.9 °F 6.8 °F 54% 29.99 in 10.0 mi South 12.7 mph - N/A   Clear
3:35 AM 23.0 °F 11.1 °F 6.8 °F 50% 29.99 in 10.0 mi South 12.7 mph - N/A   Clear
3:55 AM 24.8 °F 13.4 °F 8.6 °F 50% 29.99 in 10.0 mi South 12.7 mph - N/A   Clear
4:15 AM 23.0 °F 11.1 °F 6.8 °F 50% 29.99 in 10.0 mi South 12.7 mph - N/A   Clear
4:35 AM 21.2 °F 9.5 °F 8.6 °F 58% 29.98 in 10.0 mi SSW 11.5 mph - N/A   Clear
4:55 AM 21.2 °F 10.9 °F 6.8 °F 54% 29.98 in 10.0 mi SSW 9.2 mph - N/A   Clear
5:15 AM 19.4 °F 7.2 °F 6.8 °F 58% 29.97 in 10.0 mi South 11.5 mph - N/A   Clear
5:35 AM 19.4 °F 7.2 °F 6.8 °F 58% 29.97 in 10.0 mi South 11.5 mph - N/A   Clear
5:55 AM 21.2 °F 10.1 °F 8.6 °F 58% 29.97 in 10.0 mi South 10.4 mph - N/A   Clear
6:15 AM 21.2 °F 9.5 °F 8.6 °F 58% 29.97 in 10.0 mi South 11.5 mph - N/A   Clear
6:35 AM 21.2 °F 9.5 °F 6.8 °F 54% 29.97 in 10.0 mi SSW 11.5 mph - N/A   Clear
7:15 AM 21.2 °F 9.5 °F 8.6 °F 58% 29.96 in 10.0 mi South 11.5 mph - N/A   Clear
7:35 AM 19.4 °F 7.2 °F 6.8 °F 58% 29.97 in 10.0 mi South 11.5 mph - N/A   Clear
7:55 AM 21.2 °F 8.9 °F 8.6 °F 58% 29.96 in 10.0 mi South 12.7 mph - N/A   Clear
8:15 AM 23.0 °F 11.7 °F 8.6 °F 54% 29.96 in 10.0 mi South 11.5 mph - N/A   Clear
8:35 AM 23.0 °F 10.6 °F 8.6 °F 54% 29.96 in 10.0 mi South 13.8 mph - N/A   Clear
8:55 AM 26.6 °F 15.2 °F 12.2 °F 55% 29.96 in 10.0 mi South 13.8 mph - N/A   Clear
9:15 AM 28.4 °F 17.5 °F 12.2 °F 51% 29.96 in 10.0 mi South 13.8 mph - N/A   Clear
9:35 AM 30.2 °F 18.1 °F 15.8 °F 55% 29.97 in 10.0 mi South 18.4 mph 24.2 mph N/A   Clear
9:55 AM 33.8 °F 23.2 °F 15.8 °F 48% 29.98 in 10.0 mi South 17.3 mph 23.0 mph N/A   Clear
10:15 AM 35.6 °F 25.9 °F 17.6 °F 48% 29.98 in 10.0 mi SSW 16.1 mph - N/A   Clear
10:35 AM 37.4 °F 27.5 °F 15.8 °F 41% 29.99 in 10.0 mi SSW 18.4 mph - N/A   Clear
10:55 AM 39.2 °F 30.5 °F 15.8 °F 39% 29.98 in 10.0 mi SSW 16.1 mph - N/A   Clear
11:15 AM 42.8 °F 35.1 °F 17.6 °F 36% 29.97 in 10.0 mi SSW 16.1 mph - N/A   Clear
11:35 AM 44.6 °F 37.4 °F 17.6 °F 34% 29.97 in 10.0 mi SSW 16.1 mph - N/A   Clear
11:55 AM 44.6 °F 37.2 °F 17.6 °F 34% 29.97 in 10.0 mi South 17.3 mph 20.7 mph N/A   Clear
12:15 PM 46.4 °F 39.2 °F 17.6 °F 32% 29.97 in 10.0 mi South 18.4 mph - N/A   Clear
12:35 PM 48.2 °F - 17.6 °F 30% 29.96 in 10.0 mi South 16.1 mph 23.0 mph N/A   Clear
12:55 PM 48.2 °F - 17.6 °F 30% 29.95 in 10.0 mi South 16.1 mph - N/A   Clear
1:15 PM 50.0 °F - 17.6 °F 28% 29.94 in 10.0 mi South 13.8 mph - N/A   Clear
1:35 PM 51.8 °F - 17.6 °F 26% 29.93 in 10.0 mi South 15.0 mph - N/A   Clear
1:55 PM 53.6 °F - 17.6 °F 24% 29.93 in 10.0 mi South 17.3 mph - N/A   Clear
2:15 PM 53.6 °F - 17.6 °F 24% 29.92 in 10.0 mi South 16.1 mph - N/A   Clear
2:35 PM 53.6 °F - 17.6 °F 24% 29.92 in 10.0 mi South 13.8 mph - N/A   Clear
2:55 PM 55.4 °F - 17.6 °F 23% 29.92 in 10.0 mi South 15.0 mph - N/A   Clear
3:15 PM 55.4 °F - 17.6 °F 23% 29.92 in 10.0 mi South 17.3 mph - N/A   Clear
3:35 PM 55.4 °F - 17.6 °F 23% 29.91 in 10.0 mi South 17.3 mph 20.7 mph N/A   Clear
3:55 PM 55.4 °F - 17.6 °F 23% 29.91 in 10.0 mi South 17.3 mph - N/A   Clear
4:15 PM 55.4 °F - 17.6 °F 23% 29.92 in 10.0 mi South 13.8 mph 20.7 mph N/A   Clear
4:35 PM 55.4 °F - 17.6 °F 23% 29.92 in 10.0 mi South 13.8 mph - N/A   Clear
4:55 PM 53.6 °F - 15.8 °F 22% 29.91 in 10.0 mi South 12.7 mph - N/A   Clear
5:15 PM 51.8 °F - 14.0 °F 22% 29.91 in 10.0 mi South 11.5 mph - N/A   Clear
5:35 PM 46.4 °F 41.5 °F 12.2 °F 25% 29.91 in 10.0 mi South 10.4 mph - N/A   Clear
6:15 PM 44.6 °F 38.1 °F 12.2 °F 27% 29.91 in 10.0 mi SSE 13.8 mph - N/A   Clear
6:55 PM 42.8 °F 35.8 °F 10.4 °F 27% 29.92 in 10.0 mi South 13.8 mph - N/A   Clear
7:15 PM 41.0 °F 33.9 °F 12.2 °F 31% 29.92 in 10.0 mi South 12.7 mph - N/A   Clear
7:35 PM 42.8 °F 36.2 °F 12.2 °F 29% 29.92 in 10.0 mi SSE 12.7 mph - N/A   Clear
7:55 PM 39.2 °F 32.0 °F 10.4 °F 31% 29.93 in 10.0 mi South 11.5 mph - N/A   Clear
8:15 PM 39.2 °F 31.6 °F 10.4 °F 31% 29.93 in 10.0 mi South 12.7 mph - N/A   Clear
8:35 PM 37.4 °F 30.3 °F 10.4 °F 33% 29.94 in 10.0 mi South 10.4 mph - N/A   Clear
8:55 PM 35.6 °F 27.5 °F 10.4 °F 35% 29.94 in 10.0 mi South 11.5 mph - N/A   Clear
9:15 PM 37.4 °F 30.3 °F 12.2 °F 36% 29.94 in 10.0 mi South 10.4 mph - N/A   Clear
9:35 PM 35.6 °F 27.5 °F 8.6 °F 33% 29.94 in 10.0 mi South 11.5 mph - N/A   Clear
9:55 PM 35.6 °F 27.5 °F 10.4 °F 35% 29.95 in 10.0 mi South 11.5 mph - N/A   Clear
10:15 PM 35.6 °F 27.1 °F 12.2 °F 38% 29.95 in 10.0 mi South 12.7 mph - N/A   Clear
10:35 PM 35.6 °F 27.1 °F 12.2 °F 38% 29.95 in 10.0 mi South 12.7 mph - N/A   Clear
10:55 PM 35.6 °F 27.5 °F 10.4 °F 35% 29.95 in 10.0 mi South 11.5 mph - N/A   Clear
11:15 PM 35.6 °F 27.5 °F 10.4 °F 35% 29.95 in 10.0 mi South 11.5 mph - N/A   Clear
11:35 PM 35.6 °F 27.1 °F 12.2 °F 38% 29.95 in 10.0 mi South 12.7 mph - N/A   Clear
11:55 PM 35.6 °F 27.1 °F 12.2 °F 38% 29.95 in 10.0 mi South 12.7 mph - N/A   Clear